createdAt,value
2019-02-21T00:00:11.737Z,79.90
2019-02-21T00:02:41.718Z,80.30
2019-02-21T00:05:10.119Z,80.00
2019-02-21T00:07:38.526Z,80.60
2019-02-21T00:10:07.649Z,80.30
2019-02-21T00:12:37.797Z,80.50
2019-02-21T00:15:07.438Z,80.90
2019-02-21T00:17:37.465Z,80.60
2019-02-21T00:20:06.087Z,81.40
2019-02-21T00:22:37.602Z,80.70
2019-02-21T00:25:07.609Z,81.00
2019-02-21T00:27:35.993Z,80.90
2019-02-21T00:30:05.141Z,80.60
2019-02-21T00:32:33.563Z,80.70
2019-02-21T00:35:03.640Z,80.40
2019-02-21T00:37:32.029Z,80.50
2019-02-21T00:40:00.498Z,80.70
2019-02-21T00:42:28.875Z,80.50
2019-02-21T00:44:57.257Z,80.70
2019-02-21T00:47:25.635Z,80.60
2019-02-21T00:49:54.011Z,80.60
2019-02-21T00:52:22.438Z,80.60
2019-02-21T00:54:50.827Z,80.50
2019-02-21T00:57:19.191Z,80.60
2019-02-21T00:59:47.604Z,80.90
2019-02-21T01:02:15.985Z,80.60
2019-02-21T01:04:44.446Z,80.20
2019-02-21T01:07:12.807Z,80.20
2019-02-21T01:09:41.198Z,80.40
2019-02-21T01:12:09.597Z,80.60
2019-02-21T01:14:38.001Z,80.30
2019-02-21T01:17:06.431Z,81.00
2019-02-21T01:19:34.784Z,81.30
2019-02-21T01:22:03.986Z,82.10
2019-02-21T01:24:32.380Z,80.90
2019-02-21T01:27:00.743Z,81.00
2019-02-21T01:29:29.182Z,80.90
2019-02-21T01:31:57.579Z,81.20
2019-02-21T01:34:26.001Z,81.00
2019-02-21T01:36:54.350Z,81.20
2019-02-21T01:39:22.843Z,81.40
2019-02-21T01:41:51.227Z,81.50
2019-02-21T01:44:19.607Z,81.00
2019-02-21T01:46:48.018Z,81.50
2019-02-21T01:49:16.450Z,81.90
2019-02-21T01:51:44.914Z,81.30
2019-02-21T01:54:13.247Z,81.30
2019-02-21T01:56:41.724Z,81.90
2019-02-21T01:59:10.017Z,81.70
2019-02-21T02:01:38.418Z,82.50
2019-02-21T02:04:06.807Z,81.60
2019-02-21T02:06:35.226Z,81.50
2019-02-21T02:09:05.266Z,81.80
2019-02-21T02:11:33.707Z,81.70
2019-02-21T02:14:04.917Z,81.40
2019-02-21T02:16:33.417Z,81.50
2019-02-21T02:19:03.556Z,81.80
2019-02-21T02:21:31.927Z,81.40
2019-02-21T02:24:00.339Z,81.40
2019-02-21T02:26:28.718Z,80.90
2019-02-21T02:28:57.124Z,81.10
2019-02-21T02:31:25.512Z,81.90
2019-02-21T02:33:53.918Z,80.80
2019-02-21T02:36:22.307Z,81.00
2019-02-21T02:38:50.710Z,80.60
2019-02-21T02:41:19.129Z,80.80
2019-02-21T02:43:47.504Z,80.60
2019-02-21T02:46:15.916Z,80.60
2019-02-21T02:48:44.308Z,81.30
2019-02-21T02:51:12.672Z,81.00
2019-02-21T02:53:41.125Z,81.30
2019-02-21T02:56:09.463Z,80.90
2019-02-21T02:58:37.871Z,80.90
2019-02-21T03:01:09.125Z,81.20
2019-02-21T03:03:37.531Z,80.70
2019-02-21T03:06:05.945Z,80.20
2019-02-21T03:08:34.328Z,81.10
2019-02-21T03:11:02.734Z,81.30
2019-02-21T03:13:31.152Z,80.40
2019-02-21T03:16:01.151Z,80.80
2019-02-21T03:18:29.548Z,80.30
2019-02-21T03:20:57.959Z,80.70
2019-02-21T03:23:26.331Z,80.60
2019-02-21T03:25:54.739Z,80.70
2019-02-21T03:28:23.134Z,80.70
2019-02-21T03:30:51.621Z,80.80
2019-02-21T03:33:20.017Z,81.50
2019-02-21T03:35:48.392Z,81.30
2019-02-21T03:38:16.804Z,80.70
2019-02-21T03:40:45.205Z,80.90
2019-02-21T03:43:13.619Z,80.70
2019-02-21T03:45:42.008Z,81.00
2019-02-21T03:48:10.389Z,81.20
2019-02-21T03:50:38.764Z,80.60
2019-02-21T03:53:07.159Z,81.10
2019-02-21T03:55:35.557Z,81.30
2019-02-21T03:58:03.937Z,81.20
2019-02-21T04:00:32.332Z,81.90
2019-02-21T04:03:00.718Z,81.90
2019-02-21T04:05:29.115Z,81.40
2019-02-21T04:07:57.497Z,80.90
2019-02-21T04:10:25.893Z,81.70
2019-02-21T04:12:54.326Z,81.60
2019-02-21T04:15:22.681Z,81.90
2019-02-21T04:17:51.063Z,82.80
2019-02-21T04:20:19.443Z,82.80
2019-02-21T04:22:47.892Z,83.10
2019-02-21T04:25:16.263Z,82.90
2019-02-21T04:27:44.639Z,83.50
2019-02-21T04:30:13.057Z,82.80
2019-02-21T04:32:41.433Z,82.80
2019-02-21T04:35:09.835Z,82.60
2019-02-21T04:37:38.216Z,82.80
2019-02-21T04:40:07.108Z,82.30
2019-02-21T04:42:35.537Z,82.60
2019-02-21T04:45:04.314Z,82.30
2019-02-21T04:47:32.689Z,82.00
2019-02-21T04:50:01.103Z,81.80
2019-02-21T04:52:29.478Z,81.80
2019-02-21T04:54:57.878Z,81.60
2019-02-21T04:57:26.357Z,82.30
2019-02-21T04:59:54.735Z,82.20
2019-02-21T05:02:29.337Z,82.70
2019-02-21T05:04:53.289Z,81.80
2019-02-21T05:07:21.706Z,81.80
2019-02-21T05:09:57.869Z,83.40
2019-02-21T05:12:20.187Z,82.10
2019-02-21T05:14:48.641Z,81.90
2019-02-21T05:17:17.019Z,82.40
2019-02-21T05:19:45.427Z,82.70
2019-02-21T05:22:13.813Z,83.10
2019-02-21T05:24:42.318Z,83.40
2019-02-21T05:27:12.339Z,83.70
2019-02-21T05:29:40.740Z,83.80
2019-02-21T05:32:10.783Z,83.40
2019-02-21T05:34:59.218Z,83.30
2019-02-21T05:37:32.003Z,83.40
2019-02-21T05:40:18.298Z,83.80
2019-02-21T05:43:00.043Z,83.70
2019-02-21T05:45:39.023Z,84.00
2019-02-21T05:48:15.036Z,84.00
2019-02-21T05:50:45.056Z,84.30
2019-02-21T05:53:27.039Z,84.80
2019-02-21T05:55:57.233Z,84.90
2019-02-21T05:58:42.281Z,84.30
2019-02-21T06:01:27.348Z,84.60
2019-02-21T06:04:00.335Z,85.30
2019-02-21T06:06:30.385Z,84.50
2019-02-21T06:09:00.427Z,84.60
2019-02-21T06:11:45.468Z,84.90
2019-02-21T06:14:32.038Z,84.50
2019-02-21T06:17:10.642Z,85.10
2019-02-21T06:19:48.145Z,85.40
2019-02-21T06:22:33.492Z,84.40
2019-02-21T06:25:09.342Z,84.90
2019-02-21T06:27:42.340Z,84.30
2019-02-21T06:30:18.228Z,84.70
2019-02-21T06:32:46.609Z,84.60
2019-02-21T06:35:15.034Z,84.50
2019-02-21T06:37:43.412Z,84.00
2019-02-21T06:40:11.839Z,83.50
2019-02-21T06:42:40.220Z,83.50
2019-02-21T06:45:08.587Z,83.20
2019-02-21T06:47:37.003Z,83.60
2019-02-21T06:50:06.023Z,83.10
2019-02-21T06:52:34.472Z,83.00
2019-02-21T06:55:02.829Z,83.10
2019-02-21T06:57:31.214Z,82.40
2019-02-21T06:59:59.594Z,82.60
2019-02-21T07:02:28.292Z,82.70
2019-02-21T07:04:56.922Z,81.90
2019-02-21T07:07:25.428Z,81.70
2019-02-21T07:09:53.802Z,82.10
2019-02-21T07:12:22.242Z,81.60
2019-02-21T07:14:50.623Z,80.80
2019-02-21T07:17:19.000Z,80.90
2019-02-21T07:19:47.385Z,80.30
2019-02-21T07:22:18.070Z,80.30
2019-02-21T07:24:47.772Z,80.60
2019-02-21T07:27:16.126Z,80.10
2019-02-21T07:29:44.529Z,80.30
2019-02-21T07:32:12.949Z,80.40
2019-02-21T07:34:41.341Z,80.20
2019-02-21T07:37:18.045Z,80.30
2019-02-21T07:39:39.831Z,79.10
2019-02-21T07:42:08.243Z,79.20
2019-02-21T07:44:36.670Z,78.90
2019-02-21T07:47:05.047Z,78.70
2019-02-21T07:49:33.472Z,77.80
2019-02-21T07:52:01.839Z,77.40
2019-02-21T07:54:30.256Z,77.70
2019-02-21T07:56:58.635Z,77.20
2019-02-21T07:59:27.030Z,77.50
2019-02-21T08:01:55.429Z,77.20
2019-02-21T08:04:23.813Z,77.20
2019-02-21T08:06:55.291Z,77.50
2019-02-21T08:09:22.286Z,78.30
2019-02-21T08:11:50.680Z,77.70
2019-02-21T08:14:19.080Z,77.70
2019-02-21T08:16:47.485Z,78.10
2019-02-21T08:19:15.871Z,77.20
2019-02-21T08:21:44.316Z,76.80
2019-02-21T08:24:12.855Z,77.80
2019-02-21T08:26:41.259Z,76.80
2019-02-21T08:29:09.656Z,77.10
2019-02-21T08:31:38.067Z,77.40
2019-02-21T08:34:08.088Z,77.00
2019-02-21T08:36:36.519Z,77.00
2019-02-21T08:39:06.951Z,77.00
2019-02-21T08:41:35.337Z,76.50
2019-02-21T08:44:03.741Z,76.00
2019-02-21T08:46:32.123Z,75.30
2019-02-21T08:49:00.519Z,75.20
2019-02-21T08:51:29.018Z,76.40
2019-02-21T08:53:57.429Z,75.40
2019-02-21T08:56:25.808Z,76.10
2019-02-21T08:58:54.246Z,76.50
2019-02-21T09:01:22.595Z,76.20
2019-02-21T09:03:50.968Z,76.20
2019-02-21T09:06:19.380Z,76.90
2019-02-21T09:08:47.784Z,76.60
2019-02-21T09:11:16.184Z,78.30
2019-02-21T09:13:44.627Z,76.00
2019-02-21T09:16:13.079Z,75.90
2019-02-21T09:18:41.436Z,74.90
2019-02-21T09:21:09.853Z,73.90
2019-02-21T09:23:38.233Z,75.00
2019-02-21T09:26:06.640Z,75.10
2019-02-21T09:28:35.022Z,74.30
2019-02-21T09:31:03.438Z,74.50
2019-02-21T09:33:31.854Z,74.00
2019-02-21T09:36:00.231Z,74.60
2019-02-21T09:38:28.625Z,73.30
2019-02-21T09:40:57.017Z,73.40
2019-02-21T09:43:25.395Z,73.50
2019-02-21T09:45:54.094Z,73.60
2019-02-21T09:48:22.604Z,74.50
2019-02-21T09:50:50.980Z,75.60
2019-02-21T09:53:19.357Z,75.40
2019-02-21T09:55:50.199Z,75.10
2019-02-21T09:58:17.802Z,75.10
2019-02-21T10:00:46.209Z,74.90
2019-02-21T10:03:14.592Z,75.30
2019-02-21T10:05:43.019Z,75.60
2019-02-21T10:08:11.398Z,77.10
2019-02-21T10:10:39.771Z,76.80
2019-02-21T10:13:08.186Z,76.90
2019-02-21T10:15:37.476Z,77.50
2019-02-21T10:18:05.863Z,78.00
2019-02-21T10:20:34.257Z,77.10
2019-02-21T10:23:02.658Z,77.10
2019-02-21T10:25:31.888Z,77.70
2019-02-21T10:28:00.297Z,78.60
2019-02-21T10:30:28.713Z,79.50
2019-02-21T10:32:57.095Z,80.50
2019-02-21T10:35:25.506Z,80.40
2019-02-21T10:37:53.946Z,80.40
2019-02-21T10:40:22.323Z,81.70
2019-02-21T10:42:50.716Z,80.80
2019-02-21T10:45:20.675Z,82.50
2019-02-21T10:47:49.084Z,86.40
2019-02-21T10:50:20.602Z,86.90
2019-02-21T10:52:48.988Z,86.50
2019-02-21T10:55:17.922Z,87.40
2019-02-21T10:57:46.340Z,89.00
2019-02-21T11:00:23.619Z,89.50
2019-02-21T11:02:51.993Z,89.00
2019-02-21T11:05:20.460Z,89.00
2019-02-21T11:07:48.820Z,88.50
2019-02-21T11:10:25.424Z,90.60
2019-02-21T11:12:53.805Z,89.30
2019-02-21T11:15:24.051Z,88.80
2019-02-21T11:17:52.435Z,88.40
2019-02-21T11:20:21.679Z,85.80
2019-02-21T11:22:50.079Z,86.80
2019-02-21T11:25:18.464Z,86.90
2019-02-21T11:27:46.843Z,84.30
2019-02-21T11:30:19.651Z,87.30
2019-02-21T11:32:48.031Z,83.90
2019-02-21T11:35:16.476Z,84.60
2019-02-21T11:37:47.179Z,84.10
2019-02-21T11:40:16.306Z,85.10
2019-02-21T11:42:45.068Z,85.50
2019-02-21T11:45:17.784Z,84.00
2019-02-21T11:47:46.149Z,85.10
2019-02-21T11:50:18.419Z,84.00
2019-02-21T11:52:46.902Z,83.90
2019-02-21T11:55:23.675Z,81.80
2019-02-21T11:57:52.082Z,82.20
2019-02-21T12:00:23.893Z,82.20
2019-02-21T12:02:52.324Z,81.90
2019-02-21T12:05:30.545Z,81.80
2019-02-21T12:07:50.784Z,83.00
2019-02-21T12:10:19.173Z,82.80
2019-02-21T12:12:47.564Z,85.70
2019-02-21T12:15:16.693Z,83.70
2019-02-21T12:17:45.152Z,84.00
2019-02-21T12:20:15.250Z,82.90
2019-02-21T12:22:43.651Z,83.30
2019-02-21T12:25:14.326Z,81.20
2019-02-21T12:27:42.691Z,80.90
2019-02-21T12:30:16.144Z,82.00
2019-02-21T12:32:44.568Z,80.80
2019-02-21T12:35:13.053Z,79.90
2019-02-21T12:37:41.428Z,81.70
2019-02-21T12:40:12.949Z,80.30
2019-02-21T12:42:41.323Z,82.70
2019-02-21T12:45:12.347Z,83.00
2019-02-21T12:47:49.367Z,83.00
2019-02-21T12:50:13.487Z,85.80
2019-02-21T12:52:41.865Z,86.00
2019-02-21T12:55:11.322Z,87.90
2019-02-21T12:57:39.724Z,89.30
2019-02-21T13:00:16.864Z,87.50
2019-02-21T13:02:45.263Z,88.30
2019-02-21T13:05:13.662Z,88.50
2019-02-21T13:07:42.056Z,90.40
2019-02-21T13:10:13.313Z,90.70
2019-02-21T13:12:43.416Z,90.80
2019-02-21T13:15:13.491Z,91.20
2019-02-21T13:17:41.864Z,91.30
2019-02-21T13:20:11.673Z,91.00
2019-02-21T13:22:40.089Z,91.60
2019-02-21T13:25:11.060Z,91.30
2019-02-21T13:27:39.454Z,91.80
2019-02-21T13:30:12.880Z,91.80
2019-02-21T13:32:41.255Z,91.90
2019-02-21T13:35:10.600Z,92.50
2019-02-21T13:37:38.989Z,92.00
2019-02-21T13:40:12.896Z,93.20
2019-02-21T13:42:41.275Z,93.60
2019-02-21T13:45:11.759Z,93.30
2019-02-21T13:47:41.529Z,93.90
2019-02-21T13:50:12.351Z,94.30
2019-02-21T13:52:40.795Z,93.60
2019-02-21T13:55:09.209Z,93.40
2019-02-21T13:57:37.587Z,94.60
2019-02-21T14:00:11.777Z,93.40
2019-02-21T14:02:40.149Z,94.20
2019-02-21T14:05:08.583Z,94.70
2019-02-21T14:07:37.441Z,94.80
2019-02-21T14:10:08.762Z,94.80
2019-02-21T14:12:37.207Z,95.10
2019-02-21T14:15:08.932Z,94.80
2019-02-21T14:17:37.307Z,95.00
2019-02-21T14:20:07.699Z,94.90
2019-02-21T14:22:44.280Z,95.20
2019-02-21T14:25:12.755Z,95.30
2019-02-21T14:27:41.135Z,96.60
2019-02-21T14:30:14.944Z,96.10
2019-02-21T14:32:43.316Z,96.50
2019-02-21T14:35:14.462Z,95.00
2019-02-21T14:37:42.869Z,94.90
2019-02-21T14:40:12.623Z,94.10
2019-02-21T14:42:41.011Z,94.50
2019-02-21T14:45:20.243Z,95.00
2019-02-21T14:47:48.638Z,95.30
2019-02-21T14:50:17.068Z,94.80
2019-02-21T14:52:45.500Z,95.20
2019-02-21T14:55:16.386Z,95.40
2019-02-21T14:57:44.779Z,95.50
2019-02-21T15:00:22.479Z,95.60
2019-02-21T15:02:50.947Z,95.80
2019-02-21T15:05:19.940Z,95.00
2019-02-21T15:07:48.417Z,95.70
2019-02-21T15:10:35.384Z,95.60
2019-02-21T15:13:03.819Z,96.00
2019-02-21T15:15:32.206Z,95.90
2019-02-21T15:18:07.530Z,96.20
2019-02-21T15:20:36.952Z,95.90
2019-02-21T15:23:00.700Z,95.90
2019-02-21T15:25:29.093Z,96.50
2019-02-21T15:27:57.507Z,96.40
2019-02-21T15:30:26.270Z,96.40
2019-02-21T15:32:54.650Z,96.60
2019-02-21T15:35:23.106Z,96.50
2019-02-21T15:37:51.482Z,96.70
2019-02-21T15:40:21.316Z,97.10
2019-02-21T15:42:52.746Z,96.60
2019-02-21T15:45:24.198Z,96.80
2019-02-21T15:47:52.941Z,96.20
2019-02-21T15:50:21.359Z,96.20
2019-02-21T15:52:52.578Z,96.70
2019-02-21T15:55:21.867Z,96.90
2019-02-21T15:57:50.343Z,96.90
2019-02-21T16:00:20.215Z,96.70
2019-02-21T16:02:48.624Z,96.90
2019-02-21T16:05:18.675Z,96.40
2019-02-21T16:07:47.049Z,96.50
2019-02-21T16:10:21.203Z,96.20
2019-02-21T16:12:50.158Z,96.30
2019-02-21T16:15:19.348Z,96.40
2019-02-21T16:17:47.706Z,95.90
2019-02-21T16:20:17.447Z,95.50
2019-02-21T16:22:45.860Z,95.50
2019-02-21T16:25:22.467Z,95.30
2019-02-21T16:27:50.835Z,95.30
2019-02-21T16:30:21.909Z,95.40
2019-02-21T16:32:49.316Z,94.80
2019-02-21T16:35:17.711Z,94.60
2019-02-21T16:37:46.122Z,94.90
2019-02-21T16:40:16.907Z,94.40
2019-02-21T16:42:45.336Z,95.30
2019-02-21T16:45:22.224Z,94.50
2019-02-21T16:47:50.910Z,93.80
2019-02-21T16:50:29.449Z,93.90
2019-02-21T16:52:49.397Z,94.00
2019-02-21T16:55:20.106Z,93.70
2019-02-21T16:57:48.563Z,93.80
2019-02-21T17:00:19.164Z,93.40
2019-02-21T17:02:47.549Z,93.60
2019-02-21T17:05:16.280Z,93.50
2019-02-21T17:07:44.651Z,93.20
2019-02-21T17:10:16.476Z,93.50
2019-02-21T17:12:44.965Z,93.20
2019-02-21T17:15:14.555Z,93.80
2019-02-21T17:17:42.933Z,92.80
2019-02-21T17:20:13.957Z,93.20
2019-02-21T17:22:42.472Z,93.50
2019-02-21T17:25:13.249Z,93.50
2019-02-21T17:27:41.596Z,93.40
2019-02-21T17:30:12.914Z,93.10
2019-02-21T17:32:42.974Z,92.90
2019-02-21T17:35:11.362Z,93.20
2019-02-21T17:37:39.817Z,93.30
2019-02-21T17:40:21.725Z,93.30
2019-02-21T17:42:50.816Z,93.20
2019-02-21T17:45:19.479Z,93.00
2019-02-21T17:47:47.838Z,93.40
2019-02-21T17:50:19.964Z,93.00
2019-02-21T17:52:48.356Z,92.60
2019-02-21T17:55:17.317Z,92.60
2019-02-21T17:57:45.753Z,92.60
2019-02-21T18:00:20.980Z,92.60
2019-02-21T18:02:50.708Z,92.50
2019-02-21T18:05:19.071Z,92.50
2019-02-21T18:07:47.429Z,92.30
2019-02-21T18:10:16.890Z,92.40
2019-02-21T18:12:45.273Z,92.80
2019-02-21T18:15:14.992Z,92.60
2019-02-21T18:17:43.481Z,92.80
2019-02-21T18:20:13.322Z,92.50
2019-02-21T18:22:41.751Z,92.40
2019-02-21T18:25:22.540Z,92.30
2019-02-21T18:27:52.170Z,92.40
2019-02-21T18:30:20.507Z,92.10
2019-02-21T18:32:48.896Z,92.60
2019-02-21T18:35:17.310Z,92.10
2019-02-21T18:37:47.732Z,92.20
2019-02-21T18:40:21.158Z,91.90
2019-02-21T18:42:49.683Z,92.30
2019-02-21T18:45:18.207Z,92.10
2019-02-21T18:47:46.571Z,92.20
2019-02-21T18:50:15.050Z,92.10
2019-02-21T18:52:43.447Z,91.90
2019-02-21T18:55:11.852Z,92.20
2019-02-21T18:57:40.361Z,92.00
2019-02-21T19:00:26.015Z,92.10
2019-02-21T19:02:54.440Z,92.10
2019-02-21T19:05:22.804Z,92.30
2019-02-21T19:08:00.441Z,92.30
2019-02-21T19:10:22.360Z,92.10
2019-02-21T19:12:51.077Z,92.40
2019-02-21T19:15:20.407Z,92.10
2019-02-21T19:17:48.830Z,92.20
2019-02-21T19:20:18.839Z,92.10
2019-02-21T19:22:47.214Z,92.30
2019-02-21T19:25:15.607Z,92.60
2019-02-21T19:27:44.039Z,92.30
2019-02-21T19:30:15.825Z,92.30
2019-02-21T19:32:44.257Z,92.30
2019-02-21T19:35:12.622Z,92.30
2019-02-21T19:37:42.682Z,92.70
2019-02-21T19:40:11.217Z,92.40
2019-02-21T19:42:39.646Z,92.40
2019-02-21T19:45:08.989Z,92.60
2019-02-21T19:47:37.375Z,92.90
2019-02-21T19:50:08.145Z,93.60
2019-02-21T19:52:37.130Z,93.80
2019-02-21T19:55:10.013Z,93.70
2019-02-21T19:57:39.500Z,93.70
2019-02-21T20:00:22.708Z,93.20
2019-02-21T20:02:50.753Z,93.50
2019-02-21T20:05:19.370Z,93.30
2019-02-21T20:07:47.784Z,93.00
2019-02-21T20:10:16.252Z,93.30
2019-02-21T20:12:44.646Z,93.10
2019-02-21T20:15:13.128Z,93.50
2019-02-21T20:17:41.656Z,93.30
2019-02-21T20:20:16.080Z,93.20
2019-02-21T20:22:44.507Z,93.40
2019-02-21T20:25:12.916Z,93.30
2019-02-21T20:27:41.299Z,93.40
2019-02-21T20:30:12.848Z,93.40
2019-02-21T20:32:41.255Z,93.70
2019-02-21T20:35:09.674Z,93.80
2019-02-21T20:37:38.051Z,93.90
2019-02-21T20:40:08.684Z,94.10
2019-02-21T20:42:37.074Z,94.00
2019-02-21T20:45:15.358Z,94.00
2019-02-21T20:47:43.760Z,94.00
2019-02-21T20:50:12.594Z,94.20
2019-02-21T20:52:41.253Z,94.80
2019-02-21T20:55:10.995Z,95.10
2019-02-21T20:57:39.525Z,95.50
2019-02-21T21:00:11.074Z,95.90
2019-02-21T21:02:39.450Z,96.70
2019-02-21T21:05:07.858Z,96.90
2019-02-21T21:07:36.232Z,97.20
2019-02-21T21:10:11.353Z,97.30
2019-02-21T21:12:39.369Z,97.50
2019-02-21T21:15:10.319Z,97.60
2019-02-21T21:17:38.659Z,97.70
2019-02-21T21:20:16.353Z,97.90
2019-02-21T21:22:39.451Z,98.30
2019-02-21T21:25:13.266Z,98.30
2019-02-21T21:27:41.691Z,98.50
2019-02-21T21:30:15.660Z,98.60
2019-02-21T21:32:44.082Z,98.70
2019-02-21T21:35:12.458Z,98.80
2019-02-21T21:37:40.869Z,99.00
2019-02-21T21:40:16.852Z,99.30
2019-02-21T21:42:45.270Z,99.30
2019-02-21T21:45:15.618Z,99.50
2019-02-21T21:47:44.050Z,99.60
2019-02-21T21:50:16.906Z,99.70
2019-02-21T21:52:45.316Z,99.80
2019-02-21T21:55:13.799Z,99.90
2019-02-21T21:57:42.124Z,99.90
2019-02-21T22:00:24.058Z,99.90
2019-02-21T22:02:52.445Z,99.90
2019-02-21T22:05:20.850Z,99.90
2019-02-21T22:07:49.650Z,99.90
2019-02-21T22:10:18.418Z,99.90
2019-02-21T22:12:47.268Z,99.90
2019-02-21T22:15:23.658Z,99.90
2019-02-21T22:17:52.108Z,99.90
2019-02-21T22:20:20.551Z,99.90
2019-02-21T22:22:48.899Z,99.90
2019-02-21T22:25:17.297Z,99.90
2019-02-21T22:27:45.729Z,99.90
2019-02-21T22:30:18.607Z,99.90
2019-02-21T22:32:47.111Z,99.90
2019-02-21T22:35:17.475Z,99.90
2019-02-21T22:37:45.874Z,99.90
2019-02-21T22:40:18.162Z,99.90
2019-02-21T22:42:46.573Z,99.90
2019-02-21T22:45:15.000Z,99.90
2019-02-21T22:47:48.833Z,99.90
2019-02-21T22:50:18.820Z,99.90
2019-02-21T22:52:47.238Z,99.90
2019-02-21T22:55:15.605Z,99.90
2019-02-21T22:57:44.022Z,99.90
2019-02-21T23:00:31.996Z,99.90
2019-02-21T23:03:01.189Z,99.90
2019-02-21T23:05:58.934Z,99.90
2019-02-21T23:08:42.570Z,99.90
2019-02-21T23:11:11.145Z,99.90
2019-02-21T23:13:39.520Z,99.90
2019-02-21T23:16:07.905Z,99.90
2019-02-21T23:18:36.306Z,99.90
2019-02-21T23:21:04.781Z,99.90
2019-02-21T23:23:33.177Z,99.90
2019-02-21T23:26:01.573Z,99.90
2019-02-21T23:28:30.021Z,99.90
2019-02-21T23:30:58.452Z,99.90
2019-02-21T23:33:27.706Z,99.90
2019-02-21T23:35:56.087Z,99.90
2019-02-21T23:38:24.499Z,99.90
2019-02-21T23:40:52.919Z,99.90
2019-02-21T23:43:21.302Z,99.90
2019-02-21T23:45:49.688Z,99.90
2019-02-21T23:48:18.112Z,99.90
2019-02-21T23:50:46.495Z,99.90
2019-02-21T23:53:14.971Z,99.90
2019-02-21T23:55:43.351Z,99.90
2019-02-21T23:58:11.740Z,99.90
